sensor_id;sensor_type;location;lat;lon;timestamp;pressure;altitude;pressure_sealevel;temperature;humidity
46846;BME280;33947;46.804;134.252;2024-03-22T00:01:08;101387.41;;;0.30;43.63
46846;BME280;33947;46.804;134.252;2024-03-22T00:04:13;101364.31;;;0.14;43.19
46846;BME280;33947;46.804;134.252;2024-03-22T00:07:21;101391.94;;;0.38;43.31
46846;BME280;33947;46.804;134.252;2024-03-22T00:10:29;101371.25;;;0.49;42.71
46846;BME280;33947;46.804;134.252;2024-03-22T00:13:33;101399.53;;;0.64;42.72
46846;BME280;33947;46.804;134.252;2024-03-22T00:16:39;101393.38;;;1.00;42.24
46846;BME280;33947;46.804;134.252;2024-03-22T00:19:43;101388.38;;;1.11;41.14
46846;BME280;33947;46.804;134.252;2024-03-22T00:22:50;101393.13;;;1.29;42.78
46846;BME280;33947;46.804;134.252;2024-03-22T00:25:55;101369.94;;;1.08;43.18
46846;BME280;33947;46.804;134.252;2024-03-22T00:29:00;101390.63;;;1.35;42.93
46846;BME280;33947;46.804;134.252;2024-03-22T00:32:05;101397.75;;;1.87;41.66
46846;BME280;33947;46.804;134.252;2024-03-22T00:35:11;101384.28;;;1.25;41.96
46846;BME280;33947;46.804;134.252;2024-03-22T00:38:17;101389.47;;;1.65;42.57
46846;BME280;33947;46.804;134.252;2024-03-22T00:41:23;101396.13;;;1.95;41.44
46846;BME280;33947;46.804;134.252;2024-03-22T00:44:27;101390.31;;;2.12;42.37
46846;BME280;33947;46.804;134.252;2024-03-22T00:47:32;101390.56;;;2.26;41.44
46846;BME280;33947;46.804;134.252;2024-03-22T00:50:38;101389.44;;;2.67;41.37
46846;BME280;33947;46.804;134.252;2024-03-22T00:53:44;101378.72;;;3.14;42.32
46846;BME280;33947;46.804;134.252;2024-03-22T00:56:50;101381.22;;;3.76;39.68
46846;BME280;33947;46.804;134.252;2024-03-22T00:59:57;101383.41;;;4.24;39.93
46846;BME280;33947;46.804;134.252;2024-03-22T01:03:02;101372.25;;;4.56;38.22
46846;BME280;33947;46.804;134.252;2024-03-22T01:06:09;101376.84;;;4.86;38.20
46846;BME280;33947;46.804;134.252;2024-03-22T01:09:16;101379.53;;;4.94;38.41
46846;BME280;33947;46.804;134.252;2024-03-22T01:12:20;101370.84;;;5.07;37.91
46846;BME280;33947;46.804;134.252;2024-03-22T01:15:25;101377.72;;;4.87;37.41
46846;BME280;33947;46.804;134.252;2024-03-22T01:18:31;101375.34;;;5.32;36.71
46846;BME280;33947;46.804;134.252;2024-03-22T01:21:36;101373.47;;;5.04;36.74
46846;BME280;33947;46.804;134.252;2024-03-22T01:24:43;101364.38;;;4.59;37.07
46846;BME280;33947;46.804;134.252;2024-03-22T01:27:49;101357.75;;;5.32;36.28
46846;BME280;33947;46.804;134.252;2024-03-22T01:30:54;101348.91;;;5.16;36.01
46846;BME280;33947;46.804;134.252;2024-03-22T01:33:59;101349.97;;;5.79;35.97
46846;BME280;33947;46.804;134.252;2024-03-22T01:37:04;101342.94;;;5.95;34.98
46846;BME280;33947;46.804;134.252;2024-03-22T01:40:12;101331.47;;;5.76;35.76
46846;BME280;33947;46.804;134.252;2024-03-22T01:43:19;101340.28;;;5.81;34.87
46846;BME280;33947;46.804;134.252;2024-03-22T01:46:23;101343.81;;;6.27;34.15
46846;BME280;33947;46.804;134.252;2024-03-22T01:49:28;101338.53;;;5.99;35.12
46846;BME280;33947;46.804;134.252;2024-03-22T01:52:34;101342.06;;;6.26;35.42
46846;BME280;33947;46.804;134.252;2024-03-22T01:55:41;101327.94;;;6.47;35.07
46846;BME280;33947;46.804;134.252;2024-03-22T01:58:45;101310.38;;;6.05;35.28
46846;BME280;33947;46.804;134.252;2024-03-22T02:01:51;101333.25;;;6.41;35.53
46846;BME280;33947;46.804;134.252;2024-03-22T02:04:57;101317.34;;;5.49;36.15
46846;BME280;33947;46.804;134.252;2024-03-22T02:08:01;101327.06;;;5.75;35.18
46846;BME280;33947;46.804;134.252;2024-03-22T02:11:09;101320.91;;;5.68;35.66
46846;BME280;33947;46.804;134.252;2024-03-22T02:14:15;101321.69;;;5.30;35.97
46846;BME280;33947;46.804;134.252;2024-03-22T02:17:19;101318.78;;;4.82;37.25
46846;BME280;33947;46.804;134.252;2024-03-22T02:20:24;101316.91;;;4.53;36.50
46846;BME280;33947;46.804;134.252;2024-03-22T02:23:32;101286.44;;;3.74;38.74
46846;BME280;33947;46.804;134.252;2024-03-22T02:26:38;101303.44;;;4.12;38.31
46846;BME280;33947;46.804;134.252;2024-03-22T02:29:43;101312.53;;;4.58;37.79
46846;BME280;33947;46.804;134.252;2024-03-22T02:32:48;101299.34;;;4.58;37.83
46846;BME280;33947;46.804;134.252;2024-03-22T02:35:54;101283.44;;;4.42;37.75
46846;BME280;33947;46.804;134.252;2024-03-22T02:39:00;101275.19;;;3.94;38.62
46846;BME280;33947;46.804;134.252;2024-03-22T02:42:05;101285.19;;;4.39;38.61
46846;BME280;33947;46.804;134.252;2024-03-22T02:45:09;101286.63;;;3.98;39.22
46846;BME280;33947;46.804;134.252;2024-03-22T02:48:15;101289.59;;;4.46;38.71
46846;BME280;33947;46.804;134.252;2024-03-22T02:51:20;101290.56;;;4.59;37.12
46846;BME280;33947;46.804;134.252;2024-03-22T02:54:27;101268.50;;;4.43;37.71
46846;BME280;33947;46.804;134.252;2024-03-22T02:57:32;101286.06;;;4.42;37.77
46846;BME280;33947;46.804;134.252;2024-03-22T03:00:38;101278.94;;;4.27;38.27
46846;BME280;33947;46.804;134.252;2024-03-22T03:03:44;101274.59;;;4.31;38.57
46846;BME280;33947;46.804;134.252;2024-03-22T03:06:48;101263.28;;;4.50;37.53
46846;BME280;33947;46.804;134.252;2024-03-22T03:09:55;101260.53;;;4.29;37.77
46846;BME280;33947;46.804;134.252;2024-03-22T03:13:00;101252.47;;;4.05;37.83
46846;BME280;33947;46.804;134.252;2024-03-22T03:16:05;101248.16;;;4.18;36.84
46846;BME280;33947;46.804;134.252;2024-03-22T03:19:10;101242.94;;;4.28;37.50
46846;BME280;33947;46.804;134.252;2024-03-22T03:22:15;101247.44;;;4.47;36.52
46846;BME280;33947;46.804;134.252;2024-03-22T03:25:21;101241.22;;;4.36;36.68
46846;BME280;33947;46.804;134.252;2024-03-22T03:28:27;101231.25;;;3.90;35.74
46846;BME280;33947;46.804;134.252;2024-03-22T03:31:31;101224.22;;;3.89;37.42
46846;BME280;33947;46.804;134.252;2024-03-22T03:34:36;101233.00;;;3.83;37.21
46846;BME280;33947;46.804;134.252;2024-03-22T03:37:41;101229.38;;;3.70;37.69
46846;BME280;33947;46.804;134.252;2024-03-22T03:40:48;101226.53;;;3.47;36.40
46846;BME280;33947;46.804;134.252;2024-03-22T03:43:52;101184.53;;;3.59;37.35
46846;BME280;33947;46.804;134.252;2024-03-22T03:46:57;101213.69;;;3.84;36.92
46846;BME280;33947;46.804;134.252;2024-03-22T03:50:02;101216.47;;;4.06;36.44
46846;BME280;33947;46.804;134.252;2024-03-22T03:53:07;101212.06;;;4.00;35.65
46846;BME280;33947;46.804;134.252;2024-03-22T03:56:14;101196.78;;;3.54;35.41
46846;BME280;33947;46.804;134.252;2024-03-22T03:59:18;101202.19;;;3.73;35.47
46846;BME280;33947;46.804;134.252;2024-03-22T04:02:24;101191.44;;;3.45;36.30
46846;BME280;33947;46.804;134.252;2024-03-22T04:05:28;101189.00;;;3.68;36.07
46846;BME280;33947;46.804;134.252;2024-03-22T04:08:34;101185.63;;;3.88;35.03
46846;BME280;33947;46.804;134.252;2024-03-22T04:11:40;101170.69;;;3.82;34.58
46846;BME280;33947;46.804;134.252;2024-03-22T04:14:45;101179.41;;;3.75;34.92
46846;BME280;33947;46.804;134.252;2024-03-22T04:17:49;101158.28;;;3.67;34.12
46846;BME280;33947;46.804;134.252;2024-03-22T04:20:55;101145.22;;;3.83;34.73
46846;BME280;33947;46.804;134.252;2024-03-22T04:24:00;101167.28;;;4.00;34.11
46846;BME280;33947;46.804;134.252;2024-03-22T04:27:07;101167.22;;;3.92;35.29
46846;BME280;33947;46.804;134.252;2024-03-22T04:30:15;101161.19;;;4.07;34.58
46846;BME280;33947;46.804;134.252;2024-03-22T04:33:20;101166.53;;;4.23;34.46
46846;BME280;33947;46.804;134.252;2024-03-22T04:36:25;101168.22;;;4.12;33.71
46846;BME280;33947;46.804;134.252;2024-03-22T04:39:30;101156.75;;;4.00;34.66
46846;BME280;33947;46.804;134.252;2024-03-22T04:42:37;101134.72;;;3.84;34.71
46846;BME280;33947;46.804;134.252;2024-03-22T04:45:43;101148.06;;;4.15;34.67
46846;BME280;33947;46.804;134.252;2024-03-22T04:48:48;101161.25;;;4.20;34.52
46846;BME280;33947;46.804;134.252;2024-03-22T04:51:52;101151.63;;;4.24;34.74
46846;BME280;33947;46.804;134.252;2024-03-22T04:54:58;101145.28;;;3.93;35.32
46846;BME280;33947;46.804;134.252;2024-03-22T04:58:04;101145.38;;;4.04;35.47
46846;BME280;33947;46.804;134.252;2024-03-22T05:01:09;101154.22;;;4.22;34.52
46846;BME280;33947;46.804;134.252;2024-03-22T05:04:16;101147.28;;;4.40;34.97
46846;BME280;33947;46.804;134.252;2024-03-22T05:07:20;101149.13;;;4.55;35.94
46846;BME280;33947;46.804;134.252;2024-03-22T05:10:26;101149.88;;;4.26;36.80
46846;BME280;33947;46.804;134.252;2024-03-22T05:13:32;101142.47;;;3.66;38.64
46846;BME280;33947;46.804;134.252;2024-03-22T05:16:37;101149.22;;;3.31;40.32
46846;BME280;33947;46.804;134.252;2024-03-22T05:19:41;101145.78;;;3.37;40.78
46846;BME280;33947;46.804;134.252;2024-03-22T05:22:46;101142.78;;;2.98;41.19
46846;BME280;33947;46.804;134.252;2024-03-22T05:25:51;101144.19;;;3.60;41.72
46846;BME280;33947;46.804;134.252;2024-03-22T05:28:58;101144.03;;;3.40;40.63
46846;BME280;33947;46.804;134.252;2024-03-22T05:32:04;101147.16;;;2.96;40.81
46846;BME280;33947;46.804;134.252;2024-03-22T05:35:08;101131.50;;;3.10;40.47
46846;BME280;33947;46.804;134.252;2024-03-22T05:38:14;101135.06;;;3.16;40.55
46846;BME280;33947;46.804;134.252;2024-03-22T05:41:19;101126.56;;;3.48;41.27
46846;BME280;33947;46.804;134.252;2024-03-22T05:44:25;101131.53;;;3.13;41.96
46846;BME280;33947;46.804;134.252;2024-03-22T05:47:30;101130.41;;;2.89;41.84
46846;BME280;33947;46.804;134.252;2024-03-22T05:50:34;101127.16;;;3.15;41.54
46846;BME280;33947;46.804;134.252;2024-03-22T05:53:41;101126.94;;;2.91;41.23
46846;BME280;33947;46.804;134.252;2024-03-22T05:56:45;101107.53;;;2.75;42.30
46846;BME280;33947;46.804;134.252;2024-03-22T05:59:53;101115.91;;;3.34;42.01
46846;BME280;33947;46.804;134.252;2024-03-22T06:02:59;101118.34;;;3.08;41.60
46846;BME280;33947;46.804;134.252;2024-03-22T06:06:04;101121.75;;;2.98;43.09
46846;BME280;33947;46.804;134.252;2024-03-22T06:09:09;101113.75;;;2.87;42.56
46846;BME280;33947;46.804;134.252;2024-03-22T06:12:15;101117.31;;;2.92;42.82
46846;BME280;33947;46.804;134.252;2024-03-22T06:15:23;101118.97;;;2.84;41.97
46846;BME280;33947;46.804;134.252;2024-03-22T06:18:27;101112.69;;;2.66;42.25
46846;BME280;33947;46.804;134.252;2024-03-22T06:21:32;101119.25;;;3.13;42.12
46846;BME280;33947;46.804;134.252;2024-03-22T06:24:36;101119.34;;;3.24;41.25
46846;BME280;33947;46.804;134.252;2024-03-22T06:27:43;101118.16;;;2.86;41.35
46846;BME280;33947;46.804;134.252;2024-03-22T06:30:50;101112.94;;;2.94;43.64
46846;BME280;33947;46.804;134.252;2024-03-22T06:33:57;101118.41;;;3.16;41.95
46846;BME280;33947;46.804;134.252;2024-03-22T06:37:05;101106.94;;;3.04;42.04
46846;BME280;33947;46.804;134.252;2024-03-22T06:40:11;101085.22;;;3.30;41.69
46846;BME280;33947;46.804;134.252;2024-03-22T06:43:17;101109.75;;;3.28;40.56
46846;BME280;33947;46.804;134.252;2024-03-22T06:46:23;101099.81;;;2.97;41.15
46846;BME280;33947;46.804;134.252;2024-03-22T06:49:29;101088.56;;;3.11;42.15
46846;BME280;33947;46.804;134.252;2024-03-22T06:52:33;101095.59;;;3.12;42.31
46846;BME280;33947;46.804;134.252;2024-03-22T06:55:39;101091.88;;;2.89;42.68
46846;BME280;33947;46.804;134.252;2024-03-22T06:58:44;101071.38;;;2.51;43.06
46846;BME280;33947;46.804;134.252;2024-03-22T07:01:52;101090.06;;;2.84;43.09
46846;BME280;33947;46.804;134.252;2024-03-22T07:04:58;101092.88;;;2.99;42.88
46846;BME280;33947;46.804;134.252;2024-03-22T07:08:02;101092.22;;;3.27;41.96
46846;BME280;33947;46.804;134.252;2024-03-22T07:11:08;101089.63;;;3.34;40.71
46846;BME280;33947;46.804;134.252;2024-03-22T07:14:12;101091.41;;;3.37;40.76
46846;BME280;33947;46.804;134.252;2024-03-22T07:17:19;101081.81;;;3.48;41.37
46846;BME280;33947;46.804;134.252;2024-03-22T07:20:27;101066.09;;;3.56;40.83
46846;BME280;33947;46.804;134.252;2024-03-22T07:23:33;101083.41;;;3.23;41.10
46846;BME280;33947;46.804;134.252;2024-03-22T07:26:39;101081.91;;;3.59;40.24
46846;BME280;33947;46.804;134.252;2024-03-22T07:29:47;101073.97;;;3.53;40.29
46846;BME280;33947;46.804;134.252;2024-03-22T07:32:53;101073.00;;;3.37;38.80
46846;BME280;33947;46.804;134.252;2024-03-22T07:36:02;101066.28;;;3.87;38.02
46846;BME280;33947;46.804;134.252;2024-03-22T07:40:12;101030.22;;;3.71;37.01
46846;BME280;33947;46.804;134.252;2024-03-22T07:44:03;101065.44;;;3.98;36.43
46846;BME280;33947;46.804;134.252;2024-03-22T07:47:11;101060.16;;;3.88;36.62
46846;BME280;33947;46.804;134.252;2024-03-22T07:50:20;101064.53;;;3.88;37.00
46846;BME280;33947;46.804;134.252;2024-03-22T07:53:26;101060.91;;;3.72;36.84
46846;BME280;33947;46.804;134.252;2024-03-22T07:56:32;101051.25;;;3.68;36.56
46846;BME280;33947;46.804;134.252;2024-03-22T07:59:38;101050.34;;;3.58;37.16
46846;BME280;33947;46.804;134.252;2024-03-22T08:02:47;101044.22;;;3.63;37.13
46846;BME280;33947;46.804;134.252;2024-03-22T08:05:54;101039.88;;;3.73;36.77
46846;BME280;33947;46.804;134.252;2024-03-22T08:09:00;101047.69;;;3.59;36.81
46846;BME280;33947;46.804;134.252;2024-03-22T08:12:06;101006.31;;;3.33;36.81
46846;BME280;33947;46.804;134.252;2024-03-22T08:15:13;101026.47;;;3.30;36.59
46846;BME280;33947;46.804;134.252;2024-03-22T08:18:17;101023.81;;;3.28;36.94
46846;BME280;33947;46.804;134.252;2024-03-22T08:21:24;101039.53;;;3.19;36.57
46846;BME280;33947;46.804;134.252;2024-03-22T08:24:29;101041.25;;;3.14;37.61
46846;BME280;33947;46.804;134.252;2024-03-22T08:27:37;101019.25;;;2.99;36.90
46846;BME280;33947;46.804;134.252;2024-03-22T08:30:42;101028.72;;;2.82;37.33
46846;BME280;33947;46.804;134.252;2024-03-22T08:33:47;100989.78;;;2.37;37.66
46846;BME280;33947;46.804;134.252;2024-03-22T08:36:54;100997.06;;;2.68;36.78
46846;BME280;33947;46.804;134.252;2024-03-22T08:39:59;101031.41;;;2.88;36.84
46846;BME280;33947;46.804;134.252;2024-03-22T08:43:05;101029.63;;;2.84;36.66
46846;BME280;33947;46.804;134.252;2024-03-22T08:46:12;101041.81;;;2.75;37.39
46846;BME280;33947;46.804;134.252;2024-03-22T08:49:17;101045.06;;;2.50;37.08
46846;BME280;33947;46.804;134.252;2024-03-22T08:52:25;101041.56;;;2.51;37.80
46846;BME280;33947;46.804;134.252;2024-03-22T08:55:30;101036.97;;;2.28;37.14
46846;BME280;33947;46.804;134.252;2024-03-22T08:58:35;101043.84;;;2.18;37.91
46846;BME280;33947;46.804;134.252;2024-03-22T09:01:43;100799.94;;;0.73;37.71
46846;BME280;33947;46.804;134.252;2024-03-22T09:04:48;101007.56;;;1.83;38.41
46846;BME280;33947;46.804;134.252;2024-03-22T09:07:56;100989.81;;;1.62;38.11
46846;BME280;33947;46.804;134.252;2024-03-22T09:11:01;101016.88;;;1.59;38.83
46846;BME280;33947;46.804;134.252;2024-03-22T09:14:06;100998.94;;;1.25;38.32
46846;BME280;33947;46.804;134.252;2024-03-22T09:17:11;101034.50;;;1.09;43.56
46846;BME280;33947;46.804;134.252;2024-03-22T09:20:15;101035.50;;;0.65;43.21
46846;BME280;33947;46.804;134.252;2024-03-22T09:23:22;101041.28;;;0.47;43.70
46846;BME280;33947;46.804;134.252;2024-03-22T09:26:27;101042.94;;;0.40;42.30
46846;BME280;33947;46.804;134.252;2024-03-22T09:29:37;101031.63;;;0.41;44.04
46846;BME280;33947;46.804;134.252;2024-03-22T09:32:41;101033.00;;;0.24;44.12
46846;BME280;33947;46.804;134.252;2024-03-22T09:35:50;101026.59;;;0.08;44.29
46846;BME280;33947;46.804;134.252;2024-03-22T09:39:04;101031.69;;;-0.00;46.66
46846;BME280;33947;46.804;134.252;2024-03-22T09:42:10;101034.59;;;-0.28;46.61
46846;BME280;33947;46.804;134.252;2024-03-22T09:45:20;101008.31;;;-0.35;46.75
46846;BME280;33947;46.804;134.252;2024-03-22T09:48:27;101008.69;;;-0.17;45.47
46846;BME280;33947;46.804;134.252;2024-03-22T09:51:37;101028.47;;;0.13;44.84
46846;BME280;33947;46.804;134.252;2024-03-22T09:54:45;100974.88;;;-0.06;43.81
46846;BME280;33947;46.804;134.252;2024-03-22T09:57:54;101026.81;;;0.19;43.12
46846;BME280;33947;46.804;134.252;2024-03-22T10:01:04;101022.50;;;0.21;43.24
46846;BME280;33947;46.804;134.252;2024-03-22T10:04:12;101004.78;;;0.07;43.44
46846;BME280;33947;46.804;134.252;2024-03-22T10:07:19;101017.03;;;0.10;43.18
46846;BME280;33947;46.804;134.252;2024-03-22T10:10:25;101005.31;;;-0.11;42.86
46846;BME280;33947;46.804;134.252;2024-03-22T10:13:31;101010.66;;;-0.05;43.48
46846;BME280;33947;46.804;134.252;2024-03-22T10:16:35;101013.97;;;-0.14;42.80
46846;BME280;33947;46.804;134.252;2024-03-22T10:19:40;101013.03;;;-0.17;43.21
46846;BME280;33947;46.804;134.252;2024-03-22T10:22:49;101011.03;;;-0.29;42.85
46846;BME280;33947;46.804;134.252;2024-03-22T10:26:05;101022.00;;;-0.84;45.44
46846;BME280;33947;46.804;134.252;2024-03-22T10:29:11;101024.84;;;-1.13;46.37
46846;BME280;33947;46.804;134.252;2024-03-22T10:32:18;101027.25;;;-1.19;46.18
46846;BME280;33947;46.804;134.252;2024-03-22T10:35:24;101031.34;;;-1.31;45.87
46846;BME280;33947;46.804;134.252;2024-03-22T10:38:33;101025.00;;;-1.40;47.02
46846;BME280;33947;46.804;134.252;2024-03-22T10:41:47;101034.63;;;-1.38;48.59
46846;BME280;33947;46.804;134.252;2024-03-22T10:44:56;101037.03;;;-1.46;47.83
46846;BME280;33947;46.804;134.252;2024-03-22T10:48:02;101033.88;;;-1.67;50.58
46846;BME280;33947;46.804;134.252;2024-03-22T10:51:14;101022.09;;;-2.15;52.07
46846;BME280;33947;46.804;134.252;2024-03-22T10:54:22;100911.84;;;-3.03;51.87
46846;BME280;33947;46.804;134.252;2024-03-22T10:57:33;101043.94;;;-2.12;51.70
46846;BME280;33947;46.804;134.252;2024-03-22T11:00:43;101050.78;;;-2.15;51.46
46846;BME280;33947;46.804;134.252;2024-03-22T11:03:50;101055.50;;;-2.33;53.17
46846;BME280;33947;46.804;134.252;2024-03-22T11:06:58;101053.50;;;-2.41;53.40
46846;BME280;33947;46.804;134.252;2024-03-22T11:10:02;101052.97;;;-2.29;52.55
46846;BME280;33947;46.804;134.252;2024-03-22T11:13:11;101049.94;;;-2.45;52.49
46846;BME280;33947;46.804;134.252;2024-03-22T11:16:15;101043.38;;;-2.60;52.07
46846;BME280;33947;46.804;134.252;2024-03-22T11:19:21;101053.63;;;-2.66;52.77
46846;BME280;33947;46.804;134.252;2024-03-22T11:22:26;101053.50;;;-2.70;53.76
46846;BME280;33947;46.804;134.252;2024-03-22T11:25:32;101054.63;;;-2.62;53.84
46846;BME280;33947;46.804;134.252;2024-03-22T11:28:37;101055.91;;;-2.48;52.94
46846;BME280;33947;46.804;134.252;2024-03-22T11:31:43;101052.47;;;-2.47;53.29
46846;BME280;33947;46.804;134.252;2024-03-22T11:34:48;101050.94;;;-2.69;54.21
46846;BME280;33947;46.804;134.252;2024-03-22T11:37:54;101051.31;;;-2.84;54.94
46846;BME280;33947;46.804;134.252;2024-03-22T11:41:03;101061.75;;;-3.10;56.15
46846;BME280;33947;46.804;134.252;2024-03-22T11:44:11;101063.84;;;-3.25;57.86
46846;BME280;33947;46.804;134.252;2024-03-22T11:47:16;101027.03;;;-3.38;57.20
46846;BME280;33947;46.804;134.252;2024-03-22T11:50:21;101070.53;;;-3.08;56.40
46846;BME280;33947;46.804;134.252;2024-03-22T11:53:26;101060.00;;;-3.11;56.26
46846;BME280;33947;46.804;134.252;2024-03-22T11:56:31;101069.53;;;-3.11;55.38
46846;BME280;33947;46.804;134.252;2024-03-22T11:59:36;101076.66;;;-3.31;56.90
46846;BME280;33947;46.804;134.252;2024-03-22T12:02:49;101059.13;;;-3.63;57.50
46846;BME280;33947;46.804;134.252;2024-03-22T12:05:55;101065.81;;;-3.70;58.07
46846;BME280;33947;46.804;134.252;2024-03-22T12:09:00;101057.81;;;-3.74;58.23
46846;BME280;33947;46.804;134.252;2024-03-22T12:12:05;101067.50;;;-3.70;58.20
46846;BME280;33947;46.804;134.252;2024-03-22T12:15:12;101069.56;;;-3.62;57.94
46846;BME280;33947;46.804;134.252;2024-03-22T12:18:16;101078.97;;;-3.65;57.96
46846;BME280;33947;46.804;134.252;2024-03-22T12:21:22;101074.00;;;-3.59;58.13
46846;BME280;33947;46.804;134.252;2024-03-22T12:24:28;101068.94;;;-3.54;57.78
46846;BME280;33947;46.804;134.252;2024-03-22T12:27:33;101061.09;;;-3.56;57.61
46846;BME280;33947;46.804;134.252;2024-03-22T12:30:39;101074.66;;;-3.65;58.19
46846;BME280;33947;46.804;134.252;2024-03-22T12:33:46;101066.63;;;-3.95;59.51
46846;BME280;33947;46.804;134.252;2024-03-22T12:36:51;101072.44;;;-3.78;59.63
46846;BME280;33947;46.804;134.252;2024-03-22T12:39:56;101073.72;;;-4.14;61.16
46846;BME280;33947;46.804;134.252;2024-03-22T12:43:01;101079.41;;;-4.24;62.75
46846;BME280;33947;46.804;134.252;2024-03-22T12:46:07;101078.31;;;-4.07;60.96
46846;BME280;33947;46.804;134.252;2024-03-22T12:49:13;101079.84;;;-4.13;61.68
46846;BME280;33947;46.804;134.252;2024-03-22T12:52:18;101076.25;;;-4.40;63.00
46846;BME280;33947;46.804;134.252;2024-03-22T12:55:23;101077.88;;;-4.42;65.09
46846;BME280;33947;46.804;134.252;2024-03-22T12:58:28;101078.75;;;-4.41;62.37
46846;BME280;33947;46.804;134.252;2024-03-22T13:01:35;101083.66;;;-4.26;61.83
46846;BME280;33947;46.804;134.252;2024-03-22T13:04:41;101061.94;;;-4.51;62.89
46846;BME280;33947;46.804;134.252;2024-03-22T13:07:47;101081.91;;;-4.27;62.84
46846;BME280;33947;46.804;134.252;2024-03-22T13:10:52;101080.88;;;-4.31;64.93
46846;BME280;33947;46.804;134.252;2024-03-22T13:13:56;101083.53;;;-4.07;60.93
46846;BME280;33947;46.804;134.252;2024-03-22T13:17:04;101083.41;;;-3.87;59.66
46846;BME280;33947;46.804;134.252;2024-03-22T13:20:09;101083.00;;;-3.98;59.95
46846;BME280;33947;46.804;134.252;2024-03-22T13:23:18;101064.66;;;-4.25;60.37
46846;BME280;33947;46.804;134.252;2024-03-22T13:26:22;101056.06;;;-4.68;63.04
46846;BME280;33947;46.804;134.252;2024-03-22T13:29:29;101075.81;;;-4.51;63.21
46846;BME280;33947;46.804;134.252;2024-03-22T13:32:36;101081.06;;;-4.72;66.51
46846;BME280;33947;46.804;134.252;2024-03-22T13:35:40;101068.19;;;-4.69;64.42
46846;BME280;33947;46.804;134.252;2024-03-22T13:38:45;101080.81;;;-4.78;66.93
46846;BME280;33947;46.804;134.252;2024-03-22T13:41:49;101021.81;;;-5.03;64.36
46846;BME280;33947;46.804;134.252;2024-03-22T13:44:56;101071.22;;;-4.58;64.26
46846;BME280;33947;46.804;134.252;2024-03-22T13:48:09;101070.28;;;-4.81;67.12
46846;BME280;33947;46.804;134.252;2024-03-22T13:51:15;101073.72;;;-5.03;66.09
46846;BME280;33947;46.804;134.252;2024-03-22T13:54:20;101073.53;;;-5.29;69.13
46846;BME280;33947;46.804;134.252;2024-03-22T13:57:25;101044.03;;;-5.31;67.04
46846;BME280;33947;46.804;134.252;2024-03-22T14:00:30;101064.22;;;-5.03;66.12
46846;BME280;33947;46.804;134.252;2024-03-22T14:03:36;101059.13;;;-4.79;64.83
46846;BME280;33947;46.804;134.252;2024-03-22T14:06:42;101053.31;;;-4.73;64.16
46846;BME280;33947;46.804;134.252;2024-03-22T14:09:47;101064.22;;;-4.82;65.02
46846;BME280;33947;46.804;134.252;2024-03-22T14:12:53;101056.31;;;-5.27;66.41
46846;BME280;33947;46.804;134.252;2024-03-22T14:15:57;101058.44;;;-5.38;66.50
46846;BME280;33947;46.804;134.252;2024-03-22T14:19:05;101053.72;;;-5.27;67.23
46846;BME280;33947;46.804;134.252;2024-03-22T14:22:10;101053.00;;;-5.44;67.78
46846;BME280;33947;46.804;134.252;2024-03-22T14:25:15;101054.31;;;-5.54;67.52
46846;BME280;33947;46.804;134.252;2024-03-22T14:28:21;101055.06;;;-5.57;67.31
46846;BME280;33947;46.804;134.252;2024-03-22T14:31:27;101038.63;;;-5.57;66.98
46846;BME280;33947;46.804;134.252;2024-03-22T14:34:34;101050.22;;;-5.49;67.31
46846;BME280;33947;46.804;134.252;2024-03-22T14:37:37;101051.81;;;-5.72;69.75
46846;BME280;33947;46.804;134.252;2024-03-22T14:40:43;101047.44;;;-5.73;67.33
46846;BME280;33947;46.804;134.252;2024-03-22T14:43:49;101030.25;;;-5.71;67.78
46846;BME280;33947;46.804;134.252;2024-03-22T14:46:54;101048.06;;;-5.38;66.18
46846;BME280;33947;46.804;134.252;2024-03-22T14:50:00;101049.34;;;-5.28;65.27
46846;BME280;33947;46.804;134.252;2024-03-22T14:53:06;101053.19;;;-5.40;65.15
46846;BME280;33947;46.804;134.252;2024-03-22T14:56:11;101038.78;;;-5.74;66.37
46846;BME280;33947;46.804;134.252;2024-03-22T14:59:17;101046.97;;;-5.84;67.66
46846;BME280;33947;46.804;134.252;2024-03-22T15:02:23;101046.34;;;-5.98;68.29
46846;BME280;33947;46.804;134.252;2024-03-22T15:05:30;101038.13;;;-5.89;67.61
46846;BME280;33947;46.804;134.252;2024-03-22T15:08:35;101044.19;;;-5.89;67.84
46846;BME280;33947;46.804;134.252;2024-03-22T15:11:41;101041.00;;;-6.03;69.04
46846;BME280;33947;46.804;134.252;2024-03-22T15:14:45;101051.41;;;-6.01;68.44
46846;BME280;33947;46.804;134.252;2024-03-22T15:17:51;101039.50;;;-5.98;68.49
46846;BME280;33947;46.804;134.252;2024-03-22T15:20:57;101034.75;;;-5.67;67.57
46846;BME280;33947;46.804;134.252;2024-03-22T15:24:04;101040.91;;;-5.85;68.07
46846;BME280;33947;46.804;134.252;2024-03-22T15:27:08;101031.25;;;-6.28;70.48
46846;BME280;33947;46.804;134.252;2024-03-22T15:30:14;101035.50;;;-6.29;69.50
46846;BME280;33947;46.804;134.252;2024-03-22T15:33:18;101038.47;;;-6.21;69.97
46846;BME280;33947;46.804;134.252;2024-03-22T15:36:26;101032.88;;;-6.30;69.93
46846;BME280;33947;46.804;134.252;2024-03-22T15:39:30;101038.78;;;-6.33;70.57
46846;BME280;33947;46.804;134.252;2024-03-22T15:42:36;101040.97;;;-6.23;70.52
46846;BME280;33947;46.804;134.252;2024-03-22T15:45:41;101025.94;;;-5.92;68.37
46846;BME280;33947;46.804;134.252;2024-03-22T15:48:46;101031.41;;;-5.84;68.23
46846;BME280;33947;46.804;134.252;2024-03-22T15:51:53;101026.25;;;-5.84;67.51
46846;BME280;33947;46.804;134.252;2024-03-22T15:54:57;101004.59;;;-6.06;66.80